sensor_id;sensor_type;location;lat;lon;timestamp;P1;durP1;ratioP1;P2;durP2;ratioP2
52992;SDS011;38875;52.216;21.040;2022-08-30T00:01:33;17.42;;;7.95;;
52992;SDS011;38875;52.216;21.040;2022-08-30T00:03:59;11.63;;;7.50;;
52992;SDS011;38875;52.216;21.040;2022-08-30T00:06:26;14.13;;;8.27;;
52992;SDS011;38875;52.216;21.040;2022-08-30T00:08:53;14.85;;;7.85;;
52992;SDS011;38875;52.216;21.040;2022-08-30T00:11:21;16.55;;;7.57;;
52992;SDS011;38875;52.216;21.040;2022-08-30T00:13:50;14.20;;;7.50;;
52992;SDS011;38875;52.216;21.040;2022-08-30T00:16:17;12.63;;;7.50;;
52992;SDS011;38875;52.216;21.040;2022-08-30T00:18:45;20.48;;;8.95;;
52992;SDS011;38875;52.216;21.040;2022-08-30T00:21:11;15.13;;;7.78;;
52992;SDS011;38875;52.216;21.040;2022-08-30T00:23:37;14.95;;;8.88;;
52992;SDS011;38875;52.216;21.040;2022-08-30T00:26:04;14.02;;;8.07;;
52992;SDS011;38875;52.216;21.040;2022-08-30T00:28:30;17.65;;;7.93;;
52992;SDS011;38875;52.216;21.040;2022-08-30T00:30:58;16.65;;;8.93;;
52992;SDS011;38875;52.216;21.040;2022-08-30T00:33:27;19.58;;;8.30;;
52992;SDS011;38875;52.216;21.040;2022-08-30T00:35:53;14.73;;;8.68;;
52992;SDS011;38875;52.216;21.040;2022-08-30T00:38:19;13.20;;;7.97;;
52992;SDS011;38875;52.216;21.040;2022-08-30T00:40:47;16.55;;;8.75;;
52992;SDS011;38875;52.216;21.040;2022-08-30T00:43:18;16.40;;;8.25;;
52992;SDS011;38875;52.216;21.040;2022-08-30T00:48:14;17.75;;;8.93;;
52992;SDS011;38875;52.216;21.040;2022-08-30T00:50:47;17.40;;;8.80;;
52992;SDS011;38875;52.216;21.040;2022-08-30T00:53:19;14.05;;;8.73;;
52992;SDS011;38875;52.216;21.040;2022-08-30T00:55:47;15.13;;;8.63;;
52992;SDS011;38875;52.216;21.040;2022-08-30T00:58:17;17.85;;;8.90;;
52992;SDS011;38875;52.216;21.040;2022-08-30T01:00:50;13.80;;;8.93;;
52992;SDS011;38875;52.216;21.040;2022-08-30T01:03:19;16.33;;;9.63;;
52992;SDS011;38875;52.216;21.040;2022-08-30T01:05:45;18.70;;;9.20;;
52992;SDS011;38875;52.216;21.040;2022-08-30T01:08:14;16.33;;;9.48;;
52992;SDS011;38875;52.216;21.040;2022-08-30T01:10:39;15.52;;;9.02;;
52992;SDS011;38875;52.216;21.040;2022-08-30T01:13:06;15.77;;;9.10;;
52992;SDS011;38875;52.216;21.040;2022-08-30T01:15:33;16.17;;;9.40;;
52992;SDS011;38875;52.216;21.040;2022-08-30T01:18:00;17.98;;;9.60;;
52992;SDS011;38875;52.216;21.040;2022-08-30T01:20:28;14.15;;;9.18;;
52992;SDS011;38875;52.216;21.040;2022-08-30T01:23:04;17.67;;;9.57;;
52992;SDS011;38875;52.216;21.040;2022-08-30T01:25:34;15.50;;;8.98;;
52992;SDS011;38875;52.216;21.040;2022-08-30T01:28:06;16.83;;;9.43;;
52992;SDS011;38875;52.216;21.040;2022-08-30T01:30:33;14.38;;;9.35;;
52992;SDS011;38875;52.216;21.040;2022-08-30T01:33:03;19.33;;;10.00;;
52992;SDS011;38875;52.216;21.040;2022-08-30T01:36:04;17.23;;;10.10;;
52992;SDS011;38875;52.216;21.040;2022-08-30T01:38:29;15.80;;;10.35;;
52992;SDS011;38875;52.216;21.040;2022-08-30T01:41:19;15.77;;;9.88;;
52992;SDS011;38875;52.216;21.040;2022-08-30T01:43:56;13.80;;;9.02;;
52992;SDS011;38875;52.216;21.040;2022-08-30T01:46:25;16.85;;;9.48;;
52992;SDS011;38875;52.216;21.040;2022-08-30T01:48:54;16.92;;;10.05;;
52992;SDS011;38875;52.216;21.040;2022-08-30T01:51:22;17.80;;;9.70;;
52992;SDS011;38875;52.216;21.040;2022-08-30T01:53:50;19.42;;;10.23;;
52992;SDS011;38875;52.216;21.040;2022-08-30T01:56:16;16.88;;;10.25;;
52992;SDS011;38875;52.216;21.040;2022-08-30T01:58:43;19.48;;;10.48;;
52992;SDS011;38875;52.216;21.040;2022-08-30T02:01:10;14.52;;;9.48;;
52992;SDS011;38875;52.216;21.040;2022-08-30T02:03:39;15.80;;;9.85;;
52992;SDS011;38875;52.216;21.040;2022-08-30T02:06:07;15.90;;;10.43;;
52992;SDS011;38875;52.216;21.040;2022-08-30T02:08:35;16.45;;;9.75;;
52992;SDS011;38875;52.216;21.040;2022-08-30T02:11:02;16.40;;;9.93;;
52992;SDS011;38875;52.216;21.040;2022-08-30T02:13:29;17.73;;;10.20;;
52992;SDS011;38875;52.216;21.040;2022-08-30T02:15:55;18.33;;;10.43;;
52992;SDS011;38875;52.216;21.040;2022-08-30T02:18:22;19.40;;;10.80;;
52992;SDS011;38875;52.216;21.040;2022-08-30T02:20:49;21.17;;;10.15;;
52992;SDS011;38875;52.216;21.040;2022-08-30T02:23:15;15.88;;;11.15;;
52992;SDS011;38875;52.216;21.040;2022-08-30T02:25:41;17.55;;;11.02;;
52992;SDS011;38875;52.216;21.040;2022-08-30T02:28:07;16.60;;;10.98;;
52992;SDS011;38875;52.216;21.040;2022-08-30T02:30:33;16.20;;;10.98;;
52992;SDS011;38875;52.216;21.040;2022-08-30T02:32:58;15.60;;;10.77;;
52992;SDS011;38875;52.216;21.040;2022-08-30T02:35:25;14.18;;;10.15;;
52992;SDS011;38875;52.216;21.040;2022-08-30T02:37:50;14.75;;;10.07;;
52992;SDS011;38875;52.216;21.040;2022-08-30T02:40:17;15.52;;;10.50;;
52992;SDS011;38875;52.216;21.040;2022-08-30T02:42:44;18.42;;;11.30;;
52992;SDS011;38875;52.216;21.040;2022-08-30T02:45:09;18.27;;;10.63;;
52992;SDS011;38875;52.216;21.040;2022-08-30T02:47:35;19.70;;;11.07;;
52992;SDS011;38875;52.216;21.040;2022-08-30T02:50:03;17.48;;;11.68;;
52992;SDS011;38875;52.216;21.040;2022-08-30T02:52:30;17.75;;;11.80;;
52992;SDS011;38875;52.216;21.040;2022-08-30T02:54:56;16.17;;;10.85;;
52992;SDS011;38875;52.216;21.040;2022-08-30T02:57:22;15.20;;;10.45;;
52992;SDS011;38875;52.216;21.040;2022-08-30T02:59:48;18.92;;;11.43;;
52992;SDS011;38875;52.216;21.040;2022-08-30T03:02:14;20.17;;;11.45;;
52992;SDS011;38875;52.216;21.040;2022-08-30T03:04:40;16.75;;;10.45;;
52992;SDS011;38875;52.216;21.040;2022-08-30T03:07:09;18.45;;;11.95;;
52992;SDS011;38875;52.216;21.040;2022-08-30T03:09:36;17.67;;;11.85;;
52992;SDS011;38875;52.216;21.040;2022-08-30T03:12:02;18.33;;;12.13;;
52992;SDS011;38875;52.216;21.040;2022-08-30T03:14:30;17.38;;;11.50;;
52992;SDS011;38875;52.216;21.040;2022-08-30T03:16:56;18.23;;;11.40;;
52992;SDS011;38875;52.216;21.040;2022-08-30T03:19:23;19.98;;;11.00;;
52992;SDS011;38875;52.216;21.040;2022-08-30T03:21:50;16.55;;;11.70;;
52992;SDS011;38875;52.216;21.040;2022-08-30T03:24:16;20.02;;;11.75;;
52992;SDS011;38875;52.216;21.040;2022-08-30T03:26:42;19.30;;;11.55;;
52992;SDS011;38875;52.216;21.040;2022-08-30T03:29:08;18.17;;;11.65;;
52992;SDS011;38875;52.216;21.040;2022-08-30T03:31:34;20.27;;;13.15;;
52992;SDS011;38875;52.216;21.040;2022-08-30T03:34:01;20.38;;;12.07;;
52992;SDS011;38875;52.216;21.040;2022-08-30T03:36:27;20.52;;;12.25;;
52992;SDS011;38875;52.216;21.040;2022-08-30T03:38:53;16.95;;;11.48;;
52992;SDS011;38875;52.216;21.040;2022-08-30T03:41:19;19.08;;;12.13;;
52992;SDS011;38875;52.216;21.040;2022-08-30T03:43:45;17.38;;;11.95;;
52992;SDS011;38875;52.216;21.040;2022-08-30T03:46:12;17.27;;;12.30;;
52992;SDS011;38875;52.216;21.040;2022-08-30T03:48:38;21.48;;;12.40;;
52992;SDS011;38875;52.216;21.040;2022-08-30T03:51:05;17.70;;;12.23;;
52992;SDS011;38875;52.216;21.040;2022-08-30T03:53:31;19.60;;;11.90;;
52992;SDS011;38875;52.216;21.040;2022-08-30T03:55:57;19.73;;;12.25;;
52992;SDS011;38875;52.216;21.040;2022-08-30T03:58:23;17.55;;;11.98;;
52992;SDS011;38875;52.216;21.040;2022-08-30T04:00:48;21.58;;;13.13;;
52992;SDS011;38875;52.216;21.040;2022-08-30T04:03:15;18.83;;;12.45;;
52992;SDS011;38875;52.216;21.040;2022-08-30T04:05:42;20.88;;;12.70;;
52992;SDS011;38875;52.216;21.040;2022-08-30T04:08:09;22.98;;;12.70;;
52992;SDS011;38875;52.216;21.040;2022-08-30T04:10:35;20.75;;;13.57;;
52992;SDS011;38875;52.216;21.040;2022-08-30T04:13:01;21.25;;;12.63;;
52992;SDS011;38875;52.216;21.040;2022-08-30T04:15:27;19.70;;;11.63;;
52992;SDS011;38875;52.216;21.040;2022-08-30T04:17:54;19.23;;;11.75;;
52992;SDS011;38875;52.216;21.040;2022-08-30T04:20:20;21.65;;;12.80;;
52992;SDS011;38875;52.216;21.040;2022-08-30T04:22:45;16.77;;;10.35;;
52992;SDS011;38875;52.216;21.040;2022-08-30T04:25:12;20.95;;;10.90;;
52992;SDS011;38875;52.216;21.040;2022-08-30T04:27:38;20.10;;;11.73;;
52992;SDS011;38875;52.216;21.040;2022-08-30T04:30:03;19.38;;;11.07;;
52992;SDS011;38875;52.216;21.040;2022-08-30T04:32:32;15.13;;;10.02;;
52992;SDS011;38875;52.216;21.040;2022-08-30T04:35:00;15.65;;;10.40;;
52992;SDS011;38875;52.216;21.040;2022-08-30T04:37:26;17.48;;;9.77;;
52992;SDS011;38875;52.216;21.040;2022-08-30T04:39:56;15.45;;;9.40;;
52992;SDS011;38875;52.216;21.040;2022-08-30T04:42:25;17.40;;;10.35;;
52992;SDS011;38875;52.216;21.040;2022-08-30T04:44:54;16.42;;;9.77;;
52992;SDS011;38875;52.216;21.040;2022-08-30T04:47:19;13.52;;;8.73;;
52992;SDS011;38875;52.216;21.040;2022-08-30T04:49:45;16.13;;;10.02;;
52992;SDS011;38875;52.216;21.040;2022-08-30T04:52:11;14.05;;;9.05;;
52992;SDS011;38875;52.216;21.040;2022-08-30T04:54:37;13.65;;;8.98;;
52992;SDS011;38875;52.216;21.040;2022-08-30T04:57:04;15.80;;;9.70;;
52992;SDS011;38875;52.216;21.040;2022-08-30T04:59:30;18.20;;;9.77;;
52992;SDS011;38875;52.216;21.040;2022-08-30T05:01:57;14.13;;;9.13;;
52992;SDS011;38875;52.216;21.040;2022-08-30T05:04:24;13.32;;;9.25;;
52992;SDS011;38875;52.216;21.040;2022-08-30T05:06:49;17.98;;;9.98;;
52992;SDS011;38875;52.216;21.040;2022-08-30T05:09:16;14.68;;;8.68;;
52992;SDS011;38875;52.216;21.040;2022-08-30T05:11:41;14.38;;;9.02;;
52992;SDS011;38875;52.216;21.040;2022-08-30T05:14:08;16.67;;;9.68;;
52992;SDS011;38875;52.216;21.040;2022-08-30T05:16:34;14.93;;;8.88;;
52992;SDS011;38875;52.216;21.040;2022-08-30T05:19:00;17.33;;;9.98;;
52992;SDS011;38875;52.216;21.040;2022-08-30T05:21:26;14.23;;;8.43;;
52992;SDS011;38875;52.216;21.040;2022-08-30T05:23:53;15.93;;;8.27;;
52992;SDS011;38875;52.216;21.040;2022-08-30T05:26:23;16.15;;;7.75;;
52992;SDS011;38875;52.216;21.040;2022-08-30T05:28:51;13.55;;;8.02;;
52992;SDS011;38875;52.216;21.040;2022-08-30T05:33:45;13.48;;;7.70;;
52992;SDS011;38875;52.216;21.040;2022-08-30T05:36:12;12.85;;;7.25;;
52992;SDS011;38875;52.216;21.040;2022-08-30T05:38:40;13.23;;;7.65;;
52992;SDS011;38875;52.216;21.040;2022-08-30T05:41:07;13.40;;;6.82;;
52992;SDS011;38875;52.216;21.040;2022-08-30T05:43:34;14.10;;;7.20;;
52992;SDS011;38875;52.216;21.040;2022-08-30T05:46:01;13.80;;;7.05;;
52992;SDS011;38875;52.216;21.040;2022-08-30T05:48:28;15.70;;;7.25;;
52992;SDS011;38875;52.216;21.040;2022-08-30T05:51:05;13.38;;;7.10;;
52992;SDS011;38875;52.216;21.040;2022-08-30T05:53:36;17.52;;;7.45;;
52992;SDS011;38875;52.216;21.040;2022-08-30T05:56:03;11.48;;;6.85;;
52992;SDS011;38875;52.216;21.040;2022-08-30T05:58:31;14.40;;;6.93;;
52992;SDS011;38875;52.216;21.040;2022-08-30T06:00:57;11.38;;;6.93;;
52992;SDS011;38875;52.216;21.040;2022-08-30T06:03:23;11.35;;;5.97;;
52992;SDS011;38875;52.216;21.040;2022-08-30T06:05:49;10.57;;;5.45;;
52992;SDS011;38875;52.216;21.040;2022-08-30T06:08:15;9.52;;;5.75;;
52992;SDS011;38875;52.216;21.040;2022-08-30T06:10:42;11.75;;;6.13;;
52992;SDS011;38875;52.216;21.040;2022-08-30T06:13:08;11.55;;;5.05;;
52992;SDS011;38875;52.216;21.040;2022-08-30T06:15:34;9.55;;;4.80;;
52992;SDS011;38875;52.216;21.040;2022-08-30T06:18:01;8.15;;;4.93;;
52992;SDS011;38875;52.216;21.040;2022-08-30T06:20:27;12.00;;;5.03;;
52992;SDS011;38875;52.216;21.040;2022-08-30T06:22:53;10.88;;;5.00;;
52992;SDS011;38875;52.216;21.040;2022-08-30T06:25:19;8.88;;;4.25;;
52992;SDS011;38875;52.216;21.040;2022-08-30T06:27:44;9.35;;;3.83;;
52992;SDS011;38875;52.216;21.040;2022-08-30T06:30:10;8.18;;;3.63;;
52992;SDS011;38875;52.216;21.040;2022-08-30T06:32:37;7.53;;;3.45;;
52992;SDS011;38875;52.216;21.040;2022-08-30T06:35:03;7.03;;;3.65;;
52992;SDS011;38875;52.216;21.040;2022-08-30T06:37:30;12.23;;;4.10;;
52992;SDS011;38875;52.216;21.040;2022-08-30T06:39:58;10.40;;;4.03;;
52992;SDS011;38875;52.216;21.040;2022-08-30T06:42:25;8.68;;;3.90;;
52992;SDS011;38875;52.216;21.040;2022-08-30T06:44:58;10.10;;;3.65;;
52992;SDS011;38875;52.216;21.040;2022-08-30T06:47:26;7.38;;;3.67;;
52992;SDS011;38875;52.216;21.040;2022-08-30T06:49:52;7.40;;;3.38;;
52992;SDS011;38875;52.216;21.040;2022-08-30T06:52:18;6.32;;;2.90;;
52992;SDS011;38875;52.216;21.040;2022-08-30T06:54:44;9.60;;;3.38;;
52992;SDS011;38875;52.216;21.040;2022-08-30T06:57:10;8.02;;;3.00;;
52992;SDS011;38875;52.216;21.040;2022-08-30T06:59:37;7.32;;;3.08;;
52992;SDS011;38875;52.216;21.040;2022-08-30T07:02:04;7.90;;;2.88;;
52992;SDS011;38875;52.216;21.040;2022-08-30T07:04:30;6.78;;;2.08;;
52992;SDS011;38875;52.216;21.040;2022-08-30T07:06:56;6.65;;;2.20;;
52992;SDS011;38875;52.216;21.040;2022-08-30T07:09:23;5.47;;;2.30;;
52992;SDS011;38875;52.216;21.040;2022-08-30T07:11:49;4.80;;;2.13;;
52992;SDS011;38875;52.216;21.040;2022-08-30T07:14:15;8.05;;;2.65;;
52992;SDS011;38875;52.216;21.040;2022-08-30T07:16:42;12.15;;;3.45;;
52992;SDS011;38875;52.216;21.040;2022-08-30T07:19:08;8.85;;;3.00;;
52992;SDS011;38875;52.216;21.040;2022-08-30T07:21:35;5.45;;;2.42;;
52992;SDS011;38875;52.216;21.040;2022-08-30T07:24:04;7.05;;;2.53;;
52992;SDS011;38875;52.216;21.040;2022-08-30T07:26:38;7.85;;;2.50;;
52992;SDS011;38875;52.216;21.040;2022-08-30T07:29:07;9.23;;;2.60;;
52992;SDS011;38875;52.216;21.040;2022-08-30T07:31:33;7.90;;;3.22;;
52992;SDS011;38875;52.216;21.040;2022-08-30T07:34:01;6.32;;;2.90;;
52992;SDS011;38875;52.216;21.040;2022-08-30T07:36:30;5.57;;;2.83;;
52992;SDS011;38875;52.216;21.040;2022-08-30T07:38:57;8.45;;;2.75;;
52992;SDS011;38875;52.216;21.040;2022-08-30T07:41:24;5.20;;;2.97;;
52992;SDS011;38875;52.216;21.040;2022-08-30T07:43:52;9.57;;;2.90;;
52992;SDS011;38875;52.216;21.040;2022-08-30T07:46:19;6.93;;;2.80;;
52992;SDS011;38875;52.216;21.040;2022-08-30T07:48:45;8.15;;;2.90;;
52992;SDS011;38875;52.216;21.040;2022-08-30T07:51:12;8.52;;;3.30;;
52992;SDS011;38875;52.216;21.040;2022-08-30T07:53:41;7.68;;;2.97;;
52992;SDS011;38875;52.216;21.040;2022-08-30T07:56:07;6.97;;;2.60;;
52992;SDS011;38875;52.216;21.040;2022-08-30T07:58:34;7.30;;;2.53;;
52992;SDS011;38875;52.216;21.040;2022-08-30T08:01:02;7.07;;;2.55;;
52992;SDS011;38875;52.216;21.040;2022-08-30T08:03:29;9.40;;;2.95;;
52992;SDS011;38875;52.216;21.040;2022-08-30T08:05:55;6.45;;;2.78;;
52992;SDS011;38875;52.216;21.040;2022-08-30T08:08:21;5.88;;;2.30;;
52992;SDS011;38875;52.216;21.040;2022-08-30T08:10:48;5.20;;;2.30;;
52992;SDS011;38875;52.216;21.040;2022-08-30T08:13:14;6.38;;;2.15;;
52992;SDS011;38875;52.216;21.040;2022-08-30T08:15:39;6.40;;;2.40;;
52992;SDS011;38875;52.216;21.040;2022-08-30T08:18:05;6.82;;;2.13;;
52992;SDS011;38875;52.216;21.040;2022-08-30T08:20:32;7.63;;;2.80;;
52992;SDS011;38875;52.216;21.040;2022-08-30T08:22:59;8.10;;;2.30;;
52992;SDS011;38875;52.216;21.040;2022-08-30T08:25:25;4.95;;;2.20;;
52992;SDS011;38875;52.216;21.040;2022-08-30T08:27:51;5.93;;;2.72;;
52992;SDS011;38875;52.216;21.040;2022-08-30T08:30:18;7.18;;;2.05;;
52992;SDS011;38875;52.216;21.040;2022-08-30T08:32:45;9.07;;;2.70;;
52992;SDS011;38875;52.216;21.040;2022-08-30T08:35:12;6.43;;;2.30;;
52992;SDS011;38875;52.216;21.040;2022-08-30T08:37:38;5.10;;;1.98;;
52992;SDS011;38875;52.216;21.040;2022-08-30T08:40:05;5.05;;;1.90;;
52992;SDS011;38875;52.216;21.040;2022-08-30T08:45:45;3.85;;;2.13;;
52992;SDS011;38875;52.216;21.040;2022-08-30T08:51:07;5.18;;;2.30;;
52992;SDS011;38875;52.216;21.040;2022-08-30T08:53:59;5.07;;;1.50;;
52992;SDS011;38875;52.216;21.040;2022-08-30T08:56:29;4.82;;;1.63;;
52992;SDS011;38875;52.216;21.040;2022-08-30T08:58:57;3.25;;;1.42;;
52992;SDS011;38875;52.216;21.040;2022-08-30T09:01:24;3.67;;;1.55;;
52992;SDS011;38875;52.216;21.040;2022-08-30T09:03:52;3.70;;;1.55;;
52992;SDS011;38875;52.216;21.040;2022-08-30T09:06:21;6.03;;;1.75;;
52992;SDS011;38875;52.216;21.040;2022-08-30T09:08:54;3.05;;;1.85;;
52992;SDS011;38875;52.216;21.040;2022-08-30T09:11:30;6.78;;;1.55;;
52992;SDS011;38875;52.216;21.040;2022-08-30T09:13:58;4.63;;;1.45;;
52992;SDS011;38875;52.216;21.040;2022-08-30T09:22:30;5.10;;;1.50;;
52992;SDS011;38875;52.216;21.040;2022-08-30T09:32:35;5.05;;;1.30;;
52992;SDS011;38875;52.216;21.040;2022-08-30T09:35:09;2.83;;;1.30;;
52992;SDS011;38875;52.216;21.040;2022-08-30T09:37:51;3.35;;;1.50;;
52992;SDS011;38875;52.216;21.040;2022-08-30T09:40:27;2.75;;;1.20;;
52992;SDS011;38875;52.216;21.040;2022-08-30T09:43:04;2.55;;;1.20;;
52992;SDS011;38875;52.216;21.040;2022-08-30T09:45:44;2.58;;;1.00;;
52992;SDS011;38875;52.216;21.040;2022-08-30T09:57:10;1.98;;;1.20;;
52992;SDS011;38875;52.216;21.040;2022-08-30T10:02:54;4.05;;;1.42;;
52992;SDS011;38875;52.216;21.040;2022-08-30T10:07:44;4.22;;;1.00;;
52992;SDS011;38875;52.216;21.040;2022-08-30T10:17:58;3.00;;;1.10;;
52992;SDS011;38875;52.216;21.040;2022-08-30T10:20:35;4.20;;;1.00;;
52992;SDS011;38875;52.216;21.040;2022-08-30T10:23:15;2.13;;;1.05;;
52992;SDS011;38875;52.216;21.040;2022-08-30T10:25:50;3.28;;;1.23;;
52992;SDS011;38875;52.216;21.040;2022-08-30T10:28:34;3.63;;;0.93;;
52992;SDS011;38875;52.216;21.040;2022-08-30T10:31:10;2.72;;;1.00;;
52992;SDS011;38875;52.216;21.040;2022-08-30T10:33:52;3.13;;;1.23;;
52992;SDS011;38875;52.216;21.040;2022-08-30T10:36:26;2.03;;;1.15;;
52992;SDS011;38875;52.216;21.040;2022-08-30T10:39:00;4.95;;;1.00;;
52992;SDS011;38875;52.216;21.040;2022-08-30T10:49:13;3.00;;;1.10;;
52992;SDS011;38875;52.216;21.040;2022-08-30T10:57:39;5.97;;;1.23;;
52992;SDS011;38875;52.216;21.040;2022-08-30T11:00:07;2.25;;;1.20;;
52992;SDS011;38875;52.216;21.040;2022-08-30T11:13:44;5.03;;;1.10;;
52992;SDS011;38875;52.216;21.040;2022-08-30T11:16:12;4.10;;;1.48;;
52992;SDS011;38875;52.216;21.040;2022-08-30T11:21:31;3.35;;;1.17;;
52992;SDS011;38875;52.216;21.040;2022-08-30T11:31:58;3.05;;;1.33;;
52992;SDS011;38875;52.216;21.040;2022-08-30T11:39:56;5.03;;;1.27;;
52992;SDS011;38875;52.216;21.040;2022-08-30T11:42:25;2.85;;;0.60;;
52992;SDS011;38875;52.216;21.040;2022-08-30T11:50:16;4.00;;;1.20;;
52992;SDS011;38875;52.216;21.040;2022-08-30T11:53:01;3.17;;;0.80;;
52992;SDS011;38875;52.216;21.040;2022-08-30T12:00:39;4.65;;;1.10;;
52992;SDS011;38875;52.216;21.040;2022-08-30T12:08:10;1.85;;;0.70;;
52992;SDS011;38875;52.216;21.040;2022-08-30T12:11:05;2.15;;;0.85;;
52992;SDS011;38875;52.216;21.040;2022-08-30T12:13:52;4.32;;;1.15;;
52992;SDS011;38875;52.216;21.040;2022-08-30T12:16:20;2.38;;;1.02;;
52992;SDS011;38875;52.216;21.040;2022-08-30T12:18:59;4.65;;;0.90;;
52992;SDS011;38875;52.216;21.040;2022-08-30T12:21:39;1.65;;;0.70;;
52992;SDS011;38875;52.216;21.040;2022-08-30T12:24:18;4.07;;;0.88;;
52992;SDS011;38875;52.216;21.040;2022-08-30T12:26:50;1.52;;;0.60;;
52992;SDS011;38875;52.216;21.040;2022-08-30T12:29:19;1.55;;;0.80;;
52992;SDS011;38875;52.216;21.040;2022-08-30T12:32:05;5.75;;;0.82;;
52992;SDS011;38875;52.216;21.040;2022-08-30T12:37:20;4.00;;;1.30;;
52992;SDS011;38875;52.216;21.040;2022-08-30T12:40:14;3.90;;;1.13;;
52992;SDS011;38875;52.216;21.040;2022-08-30T12:45:48;1.77;;;0.80;;
52992;SDS011;38875;52.216;21.040;2022-08-30T12:48:16;3.47;;;0.73;;
52992;SDS011;38875;52.216;21.040;2022-08-30T12:53:24;1.77;;;0.68;;
52992;SDS011;38875;52.216;21.040;2022-08-30T12:56:12;2.05;;;0.70;;
52992;SDS011;38875;52.216;21.040;2022-08-30T12:58:42;3.90;;;0.75;;
52992;SDS011;38875;52.216;21.040;2022-08-30T13:06:34;2.00;;;0.60;;
52992;SDS011;38875;52.216;21.040;2022-08-30T13:09:26;5.35;;;0.80;;
52992;SDS011;38875;52.216;21.040;2022-08-30T13:11:56;3.35;;;0.60;;
52992;SDS011;38875;52.216;21.040;2022-08-30T13:17:04;2.55;;;0.68;;
52992;SDS011;38875;52.216;21.040;2022-08-30T13:19:37;1.38;;;0.70;;
52992;SDS011;38875;52.216;21.040;2022-08-30T13:22:06;1.65;;;0.70;;
52992;SDS011;38875;52.216;21.040;2022-08-30T13:24:49;8.02;;;0.90;;
52992;SDS011;38875;52.216;21.040;2022-08-30T13:27:16;2.65;;;1.02;;
52992;SDS011;38875;52.216;21.040;2022-08-30T13:29:42;1.75;;;0.95;;
52992;SDS011;38875;52.216;21.040;2022-08-30T13:32:08;2.22;;;1.00;;
52992;SDS011;38875;52.216;21.040;2022-08-30T13:34:34;3.97;;;1.20;;
52992;SDS011;38875;52.216;21.040;2022-08-30T13:37:00;4.28;;;1.20;;
52992;SDS011;38875;52.216;21.040;2022-08-30T13:39:27;2.85;;;1.52;;
52992;SDS011;38875;52.216;21.040;2022-08-30T13:41:53;3.20;;;1.05;;
52992;SDS011;38875;52.216;21.040;2022-08-30T13:44:19;4.65;;;1.50;;
52992;SDS011;38875;52.216;21.040;2022-08-30T13:46:48;4.00;;;1.50;;
52992;SDS011;38875;52.216;21.040;2022-08-30T13:49:21;4.57;;;1.40;;
52992;SDS011;38875;52.216;21.040;2022-08-30T13:51:52;5.05;;;1.20;;
52992;SDS011;38875;52.216;21.040;2022-08-30T13:54:18;4.45;;;1.15;;
52992;SDS011;38875;52.216;21.040;2022-08-30T13:56:47;3.28;;;1.48;;
52992;SDS011;38875;52.216;21.040;2022-08-30T13:59:14;4.43;;;0.95;;
52992;SDS011;38875;52.216;21.040;2022-08-30T14:01:40;3.40;;;1.00;;
52992;SDS011;38875;52.216;21.040;2022-08-30T14:04:07;3.92;;;1.10;;
52992;SDS011;38875;52.216;21.040;2022-08-30T14:06:33;3.63;;;1.15;;
52992;SDS011;38875;52.216;21.040;2022-08-30T14:08:58;4.18;;;1.30;;
52992;SDS011;38875;52.216;21.040;2022-08-30T14:11:24;5.60;;;1.20;;
52992;SDS011;38875;52.216;21.040;2022-08-30T14:13:50;2.40;;;1.00;;
52992;SDS011;38875;52.216;21.040;2022-08-30T14:16:16;2.58;;;0.98;;
52992;SDS011;38875;52.216;21.040;2022-08-30T14:18:43;3.75;;;1.38;;
52992;SDS011;38875;52.216;21.040;2022-08-30T14:21:08;4.30;;;1.65;;
52992;SDS011;38875;52.216;21.040;2022-08-30T14:23:34;3.28;;;1.20;;
52992;SDS011;38875;52.216;21.040;2022-08-30T14:26:00;3.25;;;1.02;;
52992;SDS011;38875;52.216;21.040;2022-08-30T14:28:32;2.88;;;1.30;;
52992;SDS011;38875;52.216;21.040;2022-08-30T14:30:57;5.30;;;1.05;;
52992;SDS011;38875;52.216;21.040;2022-08-30T14:33:23;5.75;;;1.38;;
52992;SDS011;38875;52.216;21.040;2022-08-30T14:35:49;2.58;;;1.30;;
52992;SDS011;38875;52.216;21.040;2022-08-30T14:38:15;2.53;;;1.02;;
52992;SDS011;38875;52.216;21.040;2022-08-30T14:40:40;2.05;;;0.80;;
52992;SDS011;38875;52.216;21.040;2022-08-30T14:43:06;6.53;;;1.38;;
52992;SDS011;38875;52.216;21.040;2022-08-30T14:45:32;2.78;;;1.00;;
52992;SDS011;38875;52.216;21.040;2022-08-30T14:47:57;1.58;;;0.80;;
52992;SDS011;38875;52.216;21.040;2022-08-30T14:50:27;2.20;;;1.00;;
52992;SDS011;38875;52.216;21.040;2022-08-30T14:52:52;2.47;;;1.00;;
52992;SDS011;38875;52.216;21.040;2022-08-30T14:55:18;3.22;;;0.73;;
52992;SDS011;38875;52.216;21.040;2022-08-30T14:57:44;2.80;;;0.95;;
52992;SDS011;38875;52.216;21.040;2022-08-30T15:00:10;2.63;;;0.80;;
52992;SDS011;38875;52.216;21.040;2022-08-30T15:02:37;5.18;;;3.08;;
52992;SDS011;38875;52.216;21.040;2022-08-30T15:05:03;3.08;;;0.90;;
52992;SDS011;38875;52.216;21.040;2022-08-30T15:07:29;4.90;;;0.85;;
52992;SDS011;38875;52.216;21.040;2022-08-30T15:09:54;5.65;;;0.80;;
52992;SDS011;38875;52.216;21.040;2022-08-30T15:12:20;1.80;;;0.73;;
52992;SDS011;38875;52.216;21.040;2022-08-30T15:14:46;3.75;;;0.90;;
52992;SDS011;38875;52.216;21.040;2022-08-30T15:17:11;1.58;;;0.80;;
52992;SDS011;38875;52.216;21.040;2022-08-30T15:19:38;6.20;;;1.95;;
52992;SDS011;38875;52.216;21.040;2022-08-30T15:22:04;2.25;;;0.50;;
52992;SDS011;38875;52.216;21.040;2022-08-30T15:24:31;2.13;;;0.70;;
52992;SDS011;38875;52.216;21.040;2022-08-30T15:26:58;4.10;;;0.60;;
52992;SDS011;38875;52.216;21.040;2022-08-30T15:29:24;4.30;;;0.80;;
52992;SDS011;38875;52.216;21.040;2022-08-30T15:31:51;0.95;;;0.50;;
52992;SDS011;38875;52.216;21.040;2022-08-30T15:34:18;1.65;;;0.60;;
52992;SDS011;38875;52.216;21.040;2022-08-30T15:36:45;2.33;;;0.77;;
52992;SDS011;38875;52.216;21.040;2022-08-30T15:39:12;3.42;;;1.05;;
52992;SDS011;38875;52.216;21.040;2022-08-30T15:41:40;1.73;;;0.70;;
52992;SDS011;38875;52.216;21.040;2022-08-30T15:44:07;3.83;;;0.75;;
52992;SDS011;38875;52.216;21.040;2022-08-30T15:46:36;3.90;;;1.10;;
52992;SDS011;38875;52.216;21.040;2022-08-30T15:49:09;2.13;;;1.00;;
52992;SDS011;38875;52.216;21.040;2022-08-30T15:51:41;1.27;;;0.70;;
52992;SDS011;38875;52.216;21.040;2022-08-30T15:54:12;3.50;;;0.90;;
52992;SDS011;38875;52.216;21.040;2022-08-30T15:56:40;3.25;;;0.80;;
52992;SDS011;38875;52.216;21.040;2022-08-30T15:59:06;4.40;;;1.60;;
52992;SDS011;38875;52.216;21.040;2022-08-30T16:01:33;3.20;;;0.80;;
52992;SDS011;38875;52.216;21.040;2022-08-30T16:03:59;6.50;;;1.02;;
52992;SDS011;38875;52.216;21.040;2022-08-30T16:06:26;4.25;;;0.70;;
52992;SDS011;38875;52.216;21.040;2022-08-30T16:08:54;1.52;;;0.60;;
52992;SDS011;38875;52.216;21.040;2022-08-30T16:11:21;1.83;;;0.80;;
52992;SDS011;38875;52.216;21.040;2022-08-30T16:13:49;2.25;;;0.75;;
52992;SDS011;38875;52.216;21.040;2022-08-30T16:16:16;2.92;;;1.15;;
52992;SDS011;38875;52.216;21.040;2022-08-30T16:18:43;3.42;;;0.82;;
52992;SDS011;38875;52.216;21.040;2022-08-30T16:21:29;4.43;;;1.38;;
52992;SDS011;38875;52.216;21.040;2022-08-30T16:23:56;2.42;;;1.00;;
52992;SDS011;38875;52.216;21.040;2022-08-30T16:26:24;2.33;;;0.70;;
52992;SDS011;38875;52.216;21.040;2022-08-30T16:28:50;5.05;;;0.90;;
52992;SDS011;38875;52.216;21.040;2022-08-30T16:31:17;6.22;;;1.15;;
52992;SDS011;38875;52.216;21.040;2022-08-30T16:33:43;4.25;;;1.60;;